sensor_id;sensor_type;location;lat;lon;timestamp;pressure;altitude;pressure_sealevel;temperature;humidity
77351;BME280;66420;50.246;14.320;2023-06-10T00:02:06;99340.59;;;16.06;88.70
77351;BME280;66420;50.246;14.320;2023-06-10T00:04:52;99340.03;;;16.00;89.07
77351;BME280;66420;50.246;14.320;2023-06-10T00:07:37;99340.63;;;15.93;89.49
77351;BME280;66420;50.246;14.320;2023-06-10T00:10:25;99343.63;;;15.88;89.93
77351;BME280;66420;50.246;14.320;2023-06-10T00:13:11;99350.97;;;15.96;89.18
77351;BME280;66420;50.246;14.320;2023-06-10T00:15:55;99355.91;;;15.91;89.49
77351;BME280;66420;50.246;14.320;2023-06-10T00:18:39;99350.31;;;15.87;89.14
77351;BME280;66420;50.246;14.320;2023-06-10T00:21:24;99348.00;;;15.77;89.53
77351;BME280;66420;50.246;14.320;2023-06-10T00:24:11;99346.66;;;15.71;89.01
77351;BME280;66420;50.246;14.320;2023-06-10T00:26:59;99353.44;;;15.74;89.48
77351;BME280;66420;50.246;14.320;2023-06-10T00:29:43;99354.50;;;15.57;91.15
77351;BME280;66420;50.246;14.320;2023-06-10T00:32:28;99344.72;;;15.60;90.30
77351;BME280;66420;50.246;14.320;2023-06-10T00:35:12;99348.19;;;15.57;89.57
77351;BME280;66420;50.246;14.320;2023-06-10T00:37:57;99350.94;;;15.57;89.27
77351;BME280;66420;50.246;14.320;2023-06-10T00:40:42;99359.22;;;15.57;89.36
77351;BME280;66420;50.246;14.320;2023-06-10T00:43:27;99366.41;;;15.49;89.37
77351;BME280;66420;50.246;14.320;2023-06-10T00:46:12;99365.97;;;15.47;90.25
77351;BME280;66420;50.246;14.320;2023-06-10T00:48:58;99374.47;;;15.42;90.29
77351;BME280;66420;50.246;14.320;2023-06-10T00:51:42;99373.78;;;15.45;89.88
77351;BME280;66420;50.246;14.320;2023-06-10T00:54:28;99367.13;;;15.34;90.30
77351;BME280;66420;50.246;14.320;2023-06-10T00:57:12;99376.66;;;15.36;89.96
77351;BME280;66420;50.246;14.320;2023-06-10T00:59:58;99369.50;;;15.35;89.65
77351;BME280;66420;50.246;14.320;2023-06-10T01:02:43;99374.69;;;15.37;89.74
77351;BME280;66420;50.246;14.320;2023-06-10T01:05:28;99367.13;;;15.34;90.95
77351;BME280;66420;50.246;14.320;2023-06-10T01:08:20;99364.47;;;15.25;91.10
77351;BME280;66420;50.246;14.320;2023-06-10T01:11:19;99370.81;;;15.26;91.65
77351;BME280;66420;50.246;14.320;2023-06-10T01:14:05;99377.09;;;15.26;91.13
77351;BME280;66420;50.246;14.320;2023-06-10T01:16:52;99371.47;;;15.23;91.45
77351;BME280;66420;50.246;14.320;2023-06-10T01:19:38;99377.91;;;15.27;90.96
77351;BME280;66420;50.246;14.320;2023-06-10T01:22:26;99386.28;;;15.18;91.29
77351;BME280;66420;50.246;14.320;2023-06-10T01:25:17;99382.28;;;15.16;91.50
77351;BME280;66420;50.246;14.320;2023-06-10T01:28:23;99390.28;;;15.08;92.70
77351;BME280;66420;50.246;14.320;2023-06-10T01:31:33;99385.38;;;15.14;91.57
77351;BME280;66420;50.246;14.320;2023-06-10T01:34:23;99382.94;;;15.13;91.11
77351;BME280;66420;50.246;14.320;2023-06-10T01:37:11;99389.16;;;15.09;90.77
77351;BME280;66420;50.246;14.320;2023-06-10T01:39:58;99400.41;;;15.04;91.49
77351;BME280;66420;50.246;14.320;2023-06-10T01:42:43;99394.66;;;15.09;90.73
77351;BME280;66420;50.246;14.320;2023-06-10T01:45:28;99395.69;;;15.05;90.77
77351;BME280;66420;50.246;14.320;2023-06-10T01:48:12;99396.72;;;15.00;90.84
77351;BME280;66420;50.246;14.320;2023-06-10T01:50:58;99404.53;;;14.98;90.68
77351;BME280;66420;50.246;14.320;2023-06-10T01:53:43;99408.66;;;14.92;91.60
77351;BME280;66420;50.246;14.320;2023-06-10T01:56:28;99400.13;;;14.85;92.00
77351;BME280;66420;50.246;14.320;2023-06-10T01:59:13;99404.03;;;14.84;91.54
77351;BME280;66420;50.246;14.320;2023-06-10T02:01:58;99406.66;;;14.81;92.25
77351;BME280;66420;50.246;14.320;2023-06-10T02:04:43;99408.25;;;14.82;91.36
77351;BME280;66420;50.246;14.320;2023-06-10T02:07:28;99406.19;;;14.79;90.71
77351;BME280;66420;50.246;14.320;2023-06-10T02:10:12;99410.41;;;14.76;91.83
77351;BME280;66420;50.246;14.320;2023-06-10T02:12:57;99415.50;;;14.74;91.69
77351;BME280;66420;50.246;14.320;2023-06-10T02:15:42;99412.25;;;14.72;90.77
77351;BME280;66420;50.246;14.320;2023-06-10T02:18:27;99418.13;;;14.71;90.63
77351;BME280;66420;50.246;14.320;2023-06-10T02:21:12;99417.53;;;14.65;91.48
77351;BME280;66420;50.246;14.320;2023-06-10T02:23:57;99411.09;;;14.61;91.39
77351;BME280;66420;50.246;14.320;2023-06-10T02:26:42;99415.66;;;14.57;91.74
77351;BME280;66420;50.246;14.320;2023-06-10T02:29:27;99413.78;;;14.49;91.08
77351;BME280;66420;50.246;14.320;2023-06-10T02:32:11;99417.00;;;14.51;91.01
77351;BME280;66420;50.246;14.320;2023-06-10T02:34:56;99422.84;;;14.49;90.96
77351;BME280;66420;50.246;14.320;2023-06-10T02:37:42;99427.09;;;14.47;90.94
77351;BME280;66420;50.246;14.320;2023-06-10T02:40:27;99420.44;;;14.48;91.34
77351;BME280;66420;50.246;14.320;2023-06-10T02:43:12;99425.16;;;14.47;90.92
77351;BME280;66420;50.246;14.320;2023-06-10T02:45:56;99424.22;;;14.35;91.23
77351;BME280;66420;50.246;14.320;2023-06-10T02:48:42;99431.38;;;14.36;91.21
77351;BME280;66420;50.246;14.320;2023-06-10T02:51:28;99425.22;;;14.39;90.92
77351;BME280;66420;50.246;14.320;2023-06-10T02:54:12;99425.53;;;14.37;89.80
77351;BME280;66420;50.246;14.320;2023-06-10T02:56:57;99420.38;;;14.36;90.30
77351;BME280;66420;50.246;14.320;2023-06-10T02:59:41;99430.91;;;14.34;91.33
77351;BME280;66420;50.246;14.320;2023-06-10T03:02:26;99423.28;;;14.31;90.76
77351;BME280;66420;50.246;14.320;2023-06-10T03:05:12;99431.28;;;14.24;92.02
77351;BME280;66420;50.246;14.320;2023-06-10T03:07:57;99436.31;;;14.21;91.74
77351;BME280;66420;50.246;14.320;2023-06-10T03:10:42;99438.69;;;14.11;92.01
77351;BME280;66420;50.246;14.320;2023-06-10T03:13:26;99428.78;;;13.89;93.40
77351;BME280;66420;50.246;14.320;2023-06-10T03:16:11;99440.06;;;13.96;93.50
77351;BME280;66420;50.246;14.320;2023-06-10T03:18:56;99429.53;;;13.98;93.07
77351;BME280;66420;50.246;14.320;2023-06-10T03:21:43;99436.84;;;13.94;93.05
77351;BME280;66420;50.246;14.320;2023-06-10T03:24:28;99431.38;;;13.86;93.42
77351;BME280;66420;50.246;14.320;2023-06-10T03:27:13;99437.75;;;13.77;92.96
77351;BME280;66420;50.246;14.320;2023-06-10T03:29:57;99439.63;;;13.65;93.95
77351;BME280;66420;50.246;14.320;2023-06-10T03:32:42;99444.44;;;13.68;94.53
77351;BME280;66420;50.246;14.320;2023-06-10T03:35:27;99438.94;;;13.68;94.61
77351;BME280;66420;50.246;14.320;2023-06-10T03:38:12;99438.00;;;13.64;94.55
77351;BME280;66420;50.246;14.320;2023-06-10T03:40:56;99437.63;;;13.74;94.38
77351;BME280;66420;50.246;14.320;2023-06-10T03:43:41;99445.69;;;13.79;93.86
77351;BME280;66420;50.246;14.320;2023-06-10T03:46:27;99446.34;;;13.76;94.42
77351;BME280;66420;50.246;14.320;2023-06-10T03:49:11;99454.44;;;13.72;94.79
77351;BME280;66420;50.246;14.320;2023-06-10T03:51:56;99457.19;;;13.72;94.20
77351;BME280;66420;50.246;14.320;2023-06-10T03:54:41;99454.13;;;13.74;93.56
77351;BME280;66420;50.246;14.320;2023-06-10T03:57:26;99459.63;;;13.74;94.34
77351;BME280;66420;50.246;14.320;2023-06-10T04:00:11;99467.03;;;13.82;93.48
77351;BME280;66420;50.246;14.320;2023-06-10T04:02:57;99457.63;;;13.83;93.46
77351;BME280;66420;50.246;14.320;2023-06-10T04:05:42;99465.13;;;13.74;94.25
77351;BME280;66420;50.246;14.320;2023-06-10T04:08:27;99468.47;;;13.80;94.28
77351;BME280;66420;50.246;14.320;2023-06-10T04:11:12;99463.41;;;13.90;93.67
77351;BME280;66420;50.246;14.320;2023-06-10T04:13:57;99466.66;;;13.92;93.62
77351;BME280;66420;50.246;14.320;2023-06-10T04:16:41;99469.84;;;13.94;93.31
77351;BME280;66420;50.246;14.320;2023-06-10T04:19:27;99476.66;;;13.97;93.49
77351;BME280;66420;50.246;14.320;2023-06-10T04:22:13;99479.16;;;14.10;93.36
77351;BME280;66420;50.246;14.320;2023-06-10T04:24:57;99484.53;;;14.28;92.78
77351;BME280;66420;50.246;14.320;2023-06-10T04:27:43;99478.09;;;14.24;93.18
77351;BME280;66420;50.246;14.320;2023-06-10T04:30:28;99475.28;;;14.32;92.81
77351;BME280;66420;50.246;14.320;2023-06-10T04:33:13;99489.69;;;14.38;93.30
77351;BME280;66420;50.246;14.320;2023-06-10T04:35:58;99487.75;;;14.38;93.06
77351;BME280;66420;50.246;14.320;2023-06-10T04:38:43;99486.84;;;14.46;93.01
77351;BME280;66420;50.246;14.320;2023-06-10T04:41:27;99486.97;;;14.50;92.85
77351;BME280;66420;50.246;14.320;2023-06-10T04:44:12;99498.06;;;14.62;91.88
77351;BME280;66420;50.246;14.320;2023-06-10T04:46:57;99489.78;;;14.62;92.08
77351;BME280;66420;50.246;14.320;2023-06-10T04:49:42;99488.94;;;14.70;91.15
77351;BME280;66420;50.246;14.320;2023-06-10T04:52:27;99478.84;;;14.74;91.47
77351;BME280;66420;50.246;14.320;2023-06-10T04:55:15;99483.94;;;14.84;91.62
77351;BME280;66420;50.246;14.320;2023-06-10T04:58:00;99487.34;;;15.02;90.34
77351;BME280;66420;50.246;14.320;2023-06-10T05:00:45;99487.22;;;14.98;91.07
77351;BME280;66420;50.246;14.320;2023-06-10T05:03:29;99489.28;;;15.01;91.63
77351;BME280;66420;50.246;14.320;2023-06-10T05:06:14;99484.69;;;15.05;91.57
77351;BME280;66420;50.246;14.320;2023-06-10T05:08:59;99485.53;;;15.18;90.50
77351;BME280;66420;50.246;14.320;2023-06-10T05:11:44;99488.19;;;15.27;91.07
77351;BME280;66420;50.246;14.320;2023-06-10T05:14:29;99485.13;;;15.40;90.77
77351;BME280;66420;50.246;14.320;2023-06-10T05:17:14;99482.50;;;15.44;90.78
77351;BME280;66420;50.246;14.320;2023-06-10T05:19:59;99485.28;;;15.56;90.49
77351;BME280;66420;50.246;14.320;2023-06-10T05:22:44;99487.84;;;15.61;91.18
77351;BME280;66420;50.246;14.320;2023-06-10T05:25:32;99486.56;;;15.71;91.01
77351;BME280;66420;50.246;14.320;2023-06-10T05:28:17;99493.38;;;15.85;89.44
77351;BME280;66420;50.246;14.320;2023-06-10T05:31:02;99494.16;;;15.98;89.29
77351;BME280;66420;50.246;14.320;2023-06-10T05:33:47;99492.41;;;16.06;90.14
77351;BME280;66420;50.246;14.320;2023-06-10T05:36:32;99500.81;;;16.21;89.25
77351;BME280;66420;50.246;14.320;2023-06-10T05:39:17;99507.25;;;16.25;88.60
77351;BME280;66420;50.246;14.320;2023-06-10T05:42:03;99510.44;;;16.27;88.82
77351;BME280;66420;50.246;14.320;2023-06-10T05:44:47;99498.84;;;16.34;87.27
77351;BME280;66420;50.246;14.320;2023-06-10T05:47:32;99503.06;;;16.44;89.73
77351;BME280;66420;50.246;14.320;2023-06-10T05:50:17;99510.06;;;16.65;88.41
77351;BME280;66420;50.246;14.320;2023-06-10T05:53:03;99513.44;;;16.87;89.49
77351;BME280;66420;50.246;14.320;2023-06-10T05:55:47;99503.25;;;17.03;89.81
77351;BME280;66420;50.246;14.320;2023-06-10T05:58:33;99501.72;;;17.05;88.71
77351;BME280;66420;50.246;14.320;2023-06-10T06:01:18;99498.38;;;17.12;87.92
77351;BME280;66420;50.246;14.320;2023-06-10T06:04:03;99501.94;;;17.12;87.98
77351;BME280;66420;50.246;14.320;2023-06-10T06:06:48;99505.25;;;17.18;87.49
77351;BME280;66420;50.246;14.320;2023-06-10T06:09:32;99505.44;;;17.25;86.76
77351;BME280;66420;50.246;14.320;2023-06-10T06:12:17;99509.56;;;17.31;85.33
77351;BME280;66420;50.246;14.320;2023-06-10T06:15:02;99508.50;;;17.51;85.81
77351;BME280;66420;50.246;14.320;2023-06-10T06:17:47;99505.59;;;17.60;85.63
77351;BME280;66420;50.246;14.320;2023-06-10T06:20:32;99505.94;;;17.74;84.64
77351;BME280;66420;50.246;14.320;2023-06-10T06:23:17;99511.47;;;17.74;83.07
77351;BME280;66420;50.246;14.320;2023-06-10T06:26:02;99503.03;;;17.83;83.54
77351;BME280;66420;50.246;14.320;2023-06-10T06:28:47;99514.41;;;17.97;81.12
77351;BME280;66420;50.246;14.320;2023-06-10T06:31:32;99516.63;;;18.23;79.30
77351;BME280;66420;50.246;14.320;2023-06-10T06:34:16;99515.44;;;18.39;79.58
77351;BME280;66420;50.246;14.320;2023-06-10T06:37:01;99525.94;;;18.49;80.07
77351;BME280;66420;50.246;14.320;2023-06-10T06:39:46;99520.22;;;18.58;78.64
77351;BME280;66420;50.246;14.320;2023-06-10T06:42:31;99526.66;;;18.62;79.35
77351;BME280;66420;50.246;14.320;2023-06-10T06:45:15;99527.03;;;18.61;78.23
77351;BME280;66420;50.246;14.320;2023-06-10T06:48:00;99523.06;;;18.62;76.88
77351;BME280;66420;50.246;14.320;2023-06-10T06:50:45;99531.56;;;18.69;77.27
77351;BME280;66420;50.246;14.320;2023-06-10T06:53:30;99523.84;;;18.78;77.58
77351;BME280;66420;50.246;14.320;2023-06-10T06:56:15;99525.00;;;18.77;76.76
77351;BME280;66420;50.246;14.320;2023-06-10T06:59:00;99530.84;;;18.91;76.60
77351;BME280;66420;50.246;14.320;2023-06-10T07:01:46;99529.28;;;18.93;76.19
77351;BME280;66420;50.246;14.320;2023-06-10T07:04:31;99533.63;;;18.91;76.94
77351;BME280;66420;50.246;14.320;2023-06-10T07:07:16;99536.97;;;19.00;75.63
77351;BME280;66420;50.246;14.320;2023-06-10T07:10:00;99535.28;;;19.15;75.79
77351;BME280;66420;50.246;14.320;2023-06-10T07:12:45;99540.31;;;19.28;76.00
77351;BME280;66420;50.246;14.320;2023-06-10T07:15:30;99541.09;;;19.48;75.86
77351;BME280;66420;50.246;14.320;2023-06-10T07:18:15;99535.44;;;19.64;73.64
77351;BME280;66420;50.246;14.320;2023-06-10T07:21:02;99538.03;;;19.76;73.04
77351;BME280;66420;50.246;14.320;2023-06-10T07:23:47;99549.13;;;19.76;74.13
77351;BME280;66420;50.246;14.320;2023-06-10T07:26:32;99547.13;;;19.73;72.41
77351;BME280;66420;50.246;14.320;2023-06-10T07:29:17;99539.22;;;19.75;73.16
77351;BME280;66420;50.246;14.320;2023-06-10T07:32:03;99544.34;;;19.73;72.69
77351;BME280;66420;50.246;14.320;2023-06-10T07:34:48;99542.56;;;19.84;74.11
77351;BME280;66420;50.246;14.320;2023-06-10T07:37:33;99551.44;;;19.93;73.75
77351;BME280;66420;50.246;14.320;2023-06-10T07:40:18;99553.88;;;19.75;73.83
77351;BME280;66420;50.246;14.320;2023-06-10T07:43:03;99546.31;;;19.95;74.21
77351;BME280;66420;50.246;14.320;2023-06-10T07:45:47;99556.19;;;20.15;71.69
77351;BME280;66420;50.246;14.320;2023-06-10T07:48:32;99557.09;;;20.23;70.40
77351;BME280;66420;50.246;14.320;2023-06-10T07:51:17;99556.28;;;20.22;70.39
77351;BME280;66420;50.246;14.320;2023-06-10T07:54:02;99567.53;;;20.29;69.47
77351;BME280;66420;50.246;14.320;2023-06-10T07:56:47;99563.56;;;20.30;69.91
77351;BME280;66420;50.246;14.320;2023-06-10T07:59:32;99564.31;;;20.27;69.63
77351;BME280;66420;50.246;14.320;2023-06-10T08:02:16;99558.75;;;20.27;71.80
77351;BME280;66420;50.246;14.320;2023-06-10T08:05:02;99569.13;;;20.30;71.76
77351;BME280;66420;50.246;14.320;2023-06-10T08:07:46;99578.63;;;20.29;70.64
77351;BME280;66420;50.246;14.320;2023-06-10T08:10:31;99570.03;;;20.34;68.75
77351;BME280;66420;50.246;14.320;2023-06-10T08:13:16;99574.81;;;20.38;70.62
77351;BME280;66420;50.246;14.320;2023-06-10T08:16:00;99583.56;;;20.40;70.68
77351;BME280;66420;50.246;14.320;2023-06-10T08:18:45;99581.72;;;20.47;70.06
77351;BME280;66420;50.246;14.320;2023-06-10T08:21:30;99584.19;;;20.52;70.01
77351;BME280;66420;50.246;14.320;2023-06-10T08:24:15;99583.38;;;20.52;68.35
77351;BME280;66420;50.246;14.320;2023-06-10T08:27:02;99589.56;;;20.68;67.26
77351;BME280;66420;50.246;14.320;2023-06-10T08:29:47;99578.44;;;20.68;67.71
77351;BME280;66420;50.246;14.320;2023-06-10T08:32:32;99578.44;;;20.68;69.50
77351;BME280;66420;50.246;14.320;2023-06-10T08:35:16;99579.78;;;20.77;68.08
77351;BME280;66420;50.246;14.320;2023-06-10T08:38:01;99571.25;;;20.93;66.01
77351;BME280;66420;50.246;14.320;2023-06-10T08:40:45;99579.41;;;21.09;67.93
77351;BME280;66420;50.246;14.320;2023-06-10T08:43:39;99582.25;;;21.12;65.66
77351;BME280;66420;50.246;14.320;2023-06-10T08:46:31;99578.22;;;21.10;67.25
77351;BME280;66420;50.246;14.320;2023-06-10T08:49:18;99575.66;;;21.24;67.25
77351;BME280;66420;50.246;14.320;2023-06-10T08:52:11;99569.81;;;21.36;66.65
77351;BME280;66420;50.246;14.320;2023-06-10T08:55:00;99574.69;;;21.43;66.36
77351;BME280;66420;50.246;14.320;2023-06-10T08:57:47;99571.56;;;21.48;66.03
77351;BME280;66420;50.246;14.320;2023-06-10T09:00:34;99568.03;;;21.54;65.33
77351;BME280;66420;50.246;14.320;2023-06-10T09:03:21;99564.47;;;21.54;65.62
77351;BME280;66420;50.246;14.320;2023-06-10T09:06:05;99571.88;;;21.43;64.75
77351;BME280;66420;50.246;14.320;2023-06-10T09:08:50;99561.09;;;21.38;65.10
77351;BME280;66420;50.246;14.320;2023-06-10T09:11:37;99567.88;;;21.40;66.30
77351;BME280;66420;50.246;14.320;2023-06-10T09:14:22;99567.78;;;21.30;66.77
77351;BME280;66420;50.246;14.320;2023-06-10T09:17:08;99568.97;;;21.32;67.15
77351;BME280;66420;50.246;14.320;2023-06-10T09:19:53;99575.34;;;21.33;66.59
77351;BME280;66420;50.246;14.320;2023-06-10T09:22:41;99584.13;;;21.35;66.44
77351;BME280;66420;50.246;14.320;2023-06-10T09:25:37;99584.47;;;21.30;67.06
77351;BME280;66420;50.246;14.320;2023-06-10T09:28:22;99585.47;;;21.14;66.87
77351;BME280;66420;50.246;14.320;2023-06-10T09:31:07;99589.72;;;21.08;68.05
77351;BME280;66420;50.246;14.320;2023-06-10T09:33:51;99585.28;;;21.04;70.80
77351;BME280;66420;50.246;14.320;2023-06-10T09:36:37;99592.34;;;20.94;70.52
77351;BME280;66420;50.246;14.320;2023-06-10T09:39:22;99591.44;;;20.87;72.18
77351;BME280;66420;50.246;14.320;2023-06-10T09:42:17;99597.28;;;20.78;73.89
77351;BME280;66420;50.246;14.320;2023-06-10T09:45:03;99601.19;;;20.73;73.01
77351;BME280;66420;50.246;14.320;2023-06-10T09:47:52;99594.53;;;20.82;71.23
77351;BME280;66420;50.246;14.320;2023-06-10T09:50:46;99593.72;;;20.81;73.55
77351;BME280;66420;50.246;14.320;2023-06-10T09:53:33;99597.72;;;20.80;74.69
77351;BME280;66420;50.246;14.320;2023-06-10T09:56:18;99591.72;;;20.78;74.10
77351;BME280;66420;50.246;14.320;2023-06-10T09:59:03;99590.56;;;20.83;73.25
77351;BME280;66420;50.246;14.320;2023-06-10T10:01:55;99598.63;;;20.91;73.77
77351;BME280;66420;50.246;14.320;2023-06-10T10:04:40;99598.75;;;20.98;75.43
77351;BME280;66420;50.246;14.320;2023-06-10T10:07:25;99603.34;;;20.87;73.11
77351;BME280;66420;50.246;14.320;2023-06-10T10:10:10;99599.50;;;20.95;73.26
77351;BME280;66420;50.246;14.320;2023-06-10T10:12:56;99599.63;;;21.06;73.58
77351;BME280;66420;50.246;14.320;2023-06-10T10:15:41;99599.06;;;21.19;71.52
77351;BME280;66420;50.246;14.320;2023-06-10T10:18:29;99604.69;;;21.27;68.55
77351;BME280;66420;50.246;14.320;2023-06-10T10:21:16;99599.22;;;21.34;68.30
77351;BME280;66420;50.246;14.320;2023-06-10T10:24:09;99591.38;;;21.43;68.86
77351;BME280;66420;50.246;14.320;2023-06-10T10:26:58;99590.91;;;21.37;69.35
77351;BME280;66420;50.246;14.320;2023-06-10T10:29:47;99593.47;;;21.19;68.51
77351;BME280;66420;50.246;14.320;2023-06-10T10:32:35;99587.91;;;21.19;70.90
77351;BME280;66420;50.246;14.320;2023-06-10T10:35:23;99580.84;;;21.26;71.92
77351;BME280;66420;50.246;14.320;2023-06-10T10:38:08;99578.97;;;21.37;72.00
77351;BME280;66420;50.246;14.320;2023-06-10T10:40:53;99578.63;;;21.42;71.41
77351;BME280;66420;50.246;14.320;2023-06-10T10:43:41;99583.22;;;21.27;65.83
77351;BME280;66420;50.246;14.320;2023-06-10T10:46:26;99582.16;;;21.35;68.22
77351;BME280;66420;50.246;14.320;2023-06-10T10:49:13;99585.00;;;21.42;66.62
77351;BME280;66420;50.246;14.320;2023-06-10T10:52:02;99570.06;;;21.57;66.30
77351;BME280;66420;50.246;14.320;2023-06-10T10:54:53;99584.81;;;21.25;65.19
77351;BME280;66420;50.246;14.320;2023-06-10T10:57:38;99586.78;;;21.24;63.28
77351;BME280;66420;50.246;14.320;2023-06-10T11:00:31;99585.19;;;21.60;61.38
77351;BME280;66420;50.246;14.320;2023-06-10T11:03:17;99577.53;;;21.50;63.48
77351;BME280;66420;50.246;14.320;2023-06-10T11:06:12;99583.38;;;21.75;64.16
77351;BME280;66420;50.246;14.320;2023-06-10T11:08:57;99580.56;;;21.71;62.42
77351;BME280;66420;50.246;14.320;2023-06-10T11:11:50;99578.31;;;21.87;65.10
77351;BME280;66420;50.246;14.320;2023-06-10T11:14:35;99574.69;;;21.83;62.52
77351;BME280;66420;50.246;14.320;2023-06-10T11:17:21;99569.25;;;21.94;62.53
77351;BME280;66420;50.246;14.320;2023-06-10T11:20:06;99571.59;;;22.36;61.89
77351;BME280;66420;50.246;14.320;2023-06-10T11:22:58;99574.75;;;22.31;62.38
77351;BME280;66420;50.246;14.320;2023-06-10T11:25:43;99563.69;;;22.45;64.11
77351;BME280;66420;50.246;14.320;2023-06-10T11:28:28;99556.88;;;22.39;62.72
77351;BME280;66420;50.246;14.320;2023-06-10T11:31:32;99554.91;;;21.95;63.38
77351;BME280;66420;50.246;14.320;2023-06-10T11:34:24;99546.56;;;21.95;64.04
77351;BME280;66420;50.246;14.320;2023-06-10T11:37:12;99554.44;;;22.30;64.73
77351;BME280;66420;50.246;14.320;2023-06-10T11:39:56;99541.97;;;22.72;62.84
77351;BME280;66420;50.246;14.320;2023-06-10T11:42:43;99548.09;;;22.95;62.72
77351;BME280;66420;50.246;14.320;2023-06-10T11:45:28;99537.06;;;23.41;61.14
77351;BME280;66420;50.246;14.320;2023-06-10T11:48:12;99527.47;;;23.42;59.96
77351;BME280;66420;50.246;14.320;2023-06-10T11:50:57;99531.16;;;23.74;59.84
77351;BME280;66420;50.246;14.320;2023-06-10T11:53:48;99526.41;;;24.24;62.07
77351;BME280;66420;50.246;14.320;2023-06-10T11:56:33;99517.19;;;24.38;59.03
77351;BME280;66420;50.246;14.320;2023-06-10T11:59:18;99526.75;;;24.65;56.77
77351;BME280;66420;50.246;14.320;2023-06-10T12:02:03;99519.63;;;24.36;58.25
77351;BME280;66420;50.246;14.320;2023-06-10T12:04:49;99512.03;;;24.33;60.14
77351;BME280;66420;50.246;14.320;2023-06-10T12:07:33;99524.38;;;24.11;60.95
77351;BME280;66420;50.246;14.320;2023-06-10T12:10:18;99551.34;;;23.15;66.06
77351;BME280;66420;50.246;14.320;2023-06-10T12:13:03;99524.09;;;21.78;66.37
77351;BME280;66420;50.246;14.320;2023-06-10T12:15:48;99521.72;;;22.24;71.57
77351;BME280;66420;50.246;14.320;2023-06-10T12:18:33;99519.16;;;22.59;71.78
77351;BME280;66420;50.246;14.320;2023-06-10T12:21:24;99523.78;;;22.99;67.99
77351;BME280;66420;50.246;14.320;2023-06-10T12:24:10;99510.69;;;23.24;72.12
77351;BME280;66420;50.246;14.320;2023-06-10T12:26:55;99507.63;;;23.72;70.83
77351;BME280;66420;50.246;14.320;2023-06-10T12:29:51;99502.06;;;23.82;69.31
77351;BME280;66420;50.246;14.320;2023-06-10T12:32:42;99499.63;;;24.02;65.59
77351;BME280;66420;50.246;14.320;2023-06-10T12:35:27;99490.88;;;24.18;62.46
77351;BME280;66420;50.246;14.320;2023-06-10T12:38:13;99494.03;;;23.84;66.72
77351;BME280;66420;50.246;14.320;2023-06-10T12:41:02;99485.25;;;23.61;60.58
77351;BME280;66420;50.246;14.320;2023-06-10T12:43:51;99479.28;;;24.26;60.73
77351;BME280;66420;50.246;14.320;2023-06-10T12:46:37;99479.16;;;24.62;60.50
77351;BME280;66420;50.246;14.320;2023-06-10T12:49:21;99474.31;;;24.77;59.92
77351;BME280;66420;50.246;14.320;2023-06-10T12:52:06;99472.03;;;24.47;56.27
77351;BME280;66420;50.246;14.320;2023-06-10T12:54:52;99472.84;;;24.37;57.90
77351;BME280;66420;50.246;14.320;2023-06-10T12:57:47;99483.66;;;24.10;60.08
77351;BME280;66420;50.246;14.320;2023-06-10T13:00:32;99486.78;;;23.27;67.84
77351;BME280;66420;50.246;14.320;2023-06-10T13:03:19;99476.63;;;22.76;67.26
77351;BME280;66420;50.246;14.320;2023-06-10T13:06:03;99473.09;;;22.93;72.57
77351;BME280;66420;50.246;14.320;2023-06-10T13:08:50;99468.31;;;22.94;74.07
77351;BME280;66420;50.246;14.320;2023-06-10T13:11:35;99473.03;;;22.76;72.44
77351;BME280;66420;50.246;14.320;2023-06-10T13:14:20;99477.81;;;22.72;72.32
77351;BME280;66420;50.246;14.320;2023-06-10T13:17:06;99482.13;;;22.66;73.32
77351;BME280;66420;50.246;14.320;2023-06-10T13:19:51;99472.16;;;22.65;73.42
77351;BME280;66420;50.246;14.320;2023-06-10T13:22:35;99477.34;;;22.63;72.63
77351;BME280;66420;50.246;14.320;2023-06-10T13:25:21;99472.16;;;22.65;72.70
77351;BME280;66420;50.246;14.320;2023-06-10T13:28:06;99468.97;;;22.66;70.57
77351;BME280;66420;50.246;14.320;2023-06-10T13:30:50;99471.88;;;22.84;71.95
77351;BME280;66420;50.246;14.320;2023-06-10T13:33:35;99473.84;;;22.80;64.16
77351;BME280;66420;50.246;14.320;2023-06-10T13:36:20;99472.25;;;22.82;64.84
77351;BME280;66420;50.246;14.320;2023-06-10T13:39:04;99465.91;;;22.85;64.14
77351;BME280;66420;50.246;14.320;2023-06-10T13:41:49;99465.16;;;22.95;60.85
77351;BME280;66420;50.246;14.320;2023-06-10T13:44:33;99477.16;;;23.14;61.90
77351;BME280;66420;50.246;14.320;2023-06-10T13:47:20;99482.41;;;23.43;59.34
77351;BME280;66420;50.246;14.320;2023-06-10T13:50:06;99474.06;;;23.58;61.50
77351;BME280;66420;50.246;14.320;2023-06-10T13:52:51;99460.91;;;23.72;59.70
77351;BME280;66420;50.246;14.320;2023-06-10T13:55:36;99463.69;;;23.94;61.68
77351;BME280;66420;50.246;14.320;2023-06-10T13:58:20;99476.06;;;24.03;55.12
77351;BME280;66420;50.246;14.320;2023-06-10T14:01:05;99475.66;;;24.12;53.34
77351;BME280;66420;50.246;14.320;2023-06-10T14:03:50;99478.09;;;24.17;51.88
77351;BME280;66420;50.246;14.320;2023-06-10T14:06:35;99479.66;;;24.25;52.67
77351;BME280;66420;50.246;14.320;2023-06-10T14:09:20;99475.66;;;24.29;54.04
77351;BME280;66420;50.246;14.320;2023-06-10T14:12:05;99472.88;;;24.26;52.72
77351;BME280;66420;50.246;14.320;2023-06-10T14:14:50;99466.06;;;24.38;55.87
77351;BME280;66420;50.246;14.320;2023-06-10T14:17:34;99462.03;;;24.49;51.88
77351;BME280;66420;50.246;14.320;2023-06-10T14:20:19;99468.41;;;24.60;52.20
77351;BME280;66420;50.246;14.320;2023-06-10T14:23:03;99469.19;;;24.64;53.30
77351;BME280;66420;50.246;14.320;2023-06-10T14:25:48;99463.94;;;24.73;50.43
77351;BME280;66420;50.246;14.320;2023-06-10T14:28:33;99465.56;;;24.67;53.32